sensor_id;sensor_type;location;lat;lon;timestamp;temperature;humidity
49238;DHT22;35069;47.906;1.892;2023-02-10T00:03:38;1.80;99.90
49238;DHT22;35069;47.906;1.892;2023-02-10T00:06:05;1.80;99.90
49238;DHT22;35069;47.906;1.892;2023-02-10T00:08:31;1.80;99.90
49238;DHT22;35069;47.906;1.892;2023-02-10T00:11:01;1.90;99.90
49238;DHT22;35069;47.906;1.892;2023-02-10T00:13:28;1.80;99.90
49238;DHT22;35069;47.906;1.892;2023-02-10T00:15:56;1.80;99.90
49238;DHT22;35069;47.906;1.892;2023-02-10T00:18:22;1.70;99.90
49238;DHT22;35069;47.906;1.892;2023-02-10T00:20:47;1.70;99.90
49238;DHT22;35069;47.906;1.892;2023-02-10T00:23:14;1.70;99.90
49238;DHT22;35069;47.906;1.892;2023-02-10T00:25:40;1.70;99.90
49238;DHT22;35069;47.906;1.892;2023-02-10T00:28:05;1.60;99.90
49238;DHT22;35069;47.906;1.892;2023-02-10T00:30:33;1.60;99.90
49238;DHT22;35069;47.906;1.892;2023-02-10T00:32:59;1.50;99.90
49238;DHT22;35069;47.906;1.892;2023-02-10T00:35:24;1.50;99.90
49238;DHT22;35069;47.906;1.892;2023-02-10T00:37:50;1.50;99.90
49238;DHT22;35069;47.906;1.892;2023-02-10T00:40:16;1.50;99.90
49238;DHT22;35069;47.906;1.892;2023-02-10T00:42:42;1.40;99.90
49238;DHT22;35069;47.906;1.892;2023-02-10T00:45:08;1.40;99.90
49238;DHT22;35069;47.906;1.892;2023-02-10T00:47:34;1.40;99.90
49238;DHT22;35069;47.906;1.892;2023-02-10T00:49:59;1.40;99.90
49238;DHT22;35069;47.906;1.892;2023-02-10T00:52:25;1.40;99.90
49238;DHT22;35069;47.906;1.892;2023-02-10T00:54:51;1.30;99.90
49238;DHT22;35069;47.906;1.892;2023-02-10T00:57:16;1.30;99.90
49238;DHT22;35069;47.906;1.892;2023-02-10T00:59:42;1.30;99.90
49238;DHT22;35069;47.906;1.892;2023-02-10T01:02:08;1.20;99.90
49238;DHT22;35069;47.906;1.892;2023-02-10T01:04:34;1.30;99.90
49238;DHT22;35069;47.906;1.892;2023-02-10T01:06:59;1.30;99.90
49238;DHT22;35069;47.906;1.892;2023-02-10T01:09:25;1.30;99.90
49238;DHT22;35069;47.906;1.892;2023-02-10T01:11:51;1.20;99.90
49238;DHT22;35069;47.906;1.892;2023-02-10T01:14:16;1.20;99.90
49238;DHT22;35069;47.906;1.892;2023-02-10T01:16:42;1.20;99.90
49238;DHT22;35069;47.906;1.892;2023-02-10T01:19:08;1.20;99.90
49238;DHT22;35069;47.906;1.892;2023-02-10T01:21:34;1.30;99.90
49238;DHT22;35069;47.906;1.892;2023-02-10T01:24:02;1.30;99.90
49238;DHT22;35069;47.906;1.892;2023-02-10T01:26:28;1.20;99.90
49238;DHT22;35069;47.906;1.892;2023-02-10T01:28:53;1.10;99.90
49238;DHT22;35069;47.906;1.892;2023-02-10T01:31:20;1.10;99.90
49238;DHT22;35069;47.906;1.892;2023-02-10T01:33:46;1.20;99.90
49238;DHT22;35069;47.906;1.892;2023-02-10T01:36:14;1.20;99.90
49238;DHT22;35069;47.906;1.892;2023-02-10T01:38:41;1.20;99.90
49238;DHT22;35069;47.906;1.892;2023-02-10T01:41:08;1.20;99.90
49238;DHT22;35069;47.906;1.892;2023-02-10T01:46:21;1.20;99.90
49238;DHT22;35069;47.906;1.892;2023-02-10T01:48:46;1.20;99.90
49238;DHT22;35069;47.906;1.892;2023-02-10T01:51:13;1.10;99.90
49238;DHT22;35069;47.906;1.892;2023-02-10T01:53:41;1.10;99.90
49238;DHT22;35069;47.906;1.892;2023-02-10T01:56:09;1.10;99.90
49238;DHT22;35069;47.906;1.892;2023-02-10T01:58:35;1.10;99.90
49238;DHT22;35069;47.906;1.892;2023-02-10T02:01:01;1.10;99.90
49238;DHT22;35069;47.906;1.892;2023-02-10T02:03:26;1.10;99.90
49238;DHT22;35069;47.906;1.892;2023-02-10T02:05:52;1.10;99.90
49238;DHT22;35069;47.906;1.892;2023-02-10T02:08:22;1.10;99.90
49238;DHT22;35069;47.906;1.892;2023-02-10T02:10:56;1.00;99.90
49238;DHT22;35069;47.906;1.892;2023-02-10T02:13:42;1.00;99.90
49238;DHT22;35069;47.906;1.892;2023-02-10T02:25:17;0.80;99.90
49238;DHT22;35069;47.906;1.892;2023-02-10T02:31:40;0.80;99.90
49238;DHT22;35069;47.906;1.892;2023-02-10T02:34:40;0.70;99.90
49238;DHT22;35069;47.906;1.892;2023-02-10T02:37:16;0.70;99.90
49238;DHT22;35069;47.906;1.892;2023-02-10T02:39:43;0.70;99.90
49238;DHT22;35069;47.906;1.892;2023-02-10T02:42:21;0.80;99.90
49238;DHT22;35069;47.906;1.892;2023-02-10T02:44:54;0.80;99.90
49238;DHT22;35069;47.906;1.892;2023-02-10T02:50:27;0.80;99.90
49238;DHT22;35069;47.906;1.892;2023-02-10T02:59:03;0.70;99.90
49238;DHT22;35069;47.906;1.892;2023-02-10T03:01:35;0.70;99.90
49238;DHT22;35069;47.906;1.892;2023-02-10T03:04:03;0.80;99.90
49238;DHT22;35069;47.906;1.892;2023-02-10T03:06:29;0.80;99.90
49238;DHT22;35069;47.906;1.892;2023-02-10T03:08:55;0.90;99.90
49238;DHT22;35069;47.906;1.892;2023-02-10T03:11:20;1.00;99.90
49238;DHT22;35069;47.906;1.892;2023-02-10T03:13:46;1.00;99.90
49238;DHT22;35069;47.906;1.892;2023-02-10T03:16:12;0.90;99.90
49238;DHT22;35069;47.906;1.892;2023-02-10T03:18:37;1.00;99.90
49238;DHT22;35069;47.906;1.892;2023-02-10T03:21:04;1.10;99.90
49238;DHT22;35069;47.906;1.892;2023-02-10T03:23:29;1.10;99.90
49238;DHT22;35069;47.906;1.892;2023-02-10T03:25:57;1.20;99.90
49238;DHT22;35069;47.906;1.892;2023-02-10T03:28:23;1.30;99.90
49238;DHT22;35069;47.906;1.892;2023-02-10T03:30:49;1.30;99.90
49238;DHT22;35069;47.906;1.892;2023-02-10T03:33:16;1.30;99.90
49238;DHT22;35069;47.906;1.892;2023-02-10T03:35:45;1.40;99.90
49238;DHT22;35069;47.906;1.892;2023-02-10T03:38:12;1.50;99.90
49238;DHT22;35069;47.906;1.892;2023-02-10T03:40:37;1.50;99.90
49238;DHT22;35069;47.906;1.892;2023-02-10T03:43:03;1.60;99.90
49238;DHT22;35069;47.906;1.892;2023-02-10T03:45:29;1.60;99.90
49238;DHT22;35069;47.906;1.892;2023-02-10T03:47:54;1.70;99.90
49238;DHT22;35069;47.906;1.892;2023-02-10T03:50:20;1.70;99.90
49238;DHT22;35069;47.906;1.892;2023-02-10T03:52:46;1.70;99.90
49238;DHT22;35069;47.906;1.892;2023-02-10T03:55:11;1.70;99.90
49238;DHT22;35069;47.906;1.892;2023-02-10T03:57:43;1.70;99.90
49238;DHT22;35069;47.906;1.892;2023-02-10T04:00:09;1.70;99.90
49238;DHT22;35069;47.906;1.892;2023-02-10T04:02:35;1.70;99.90
49238;DHT22;35069;47.906;1.892;2023-02-10T04:05:01;1.80;99.90
49238;DHT22;35069;47.906;1.892;2023-02-10T04:07:26;1.80;99.90
49238;DHT22;35069;47.906;1.892;2023-02-10T04:09:52;1.80;99.90
49238;DHT22;35069;47.906;1.892;2023-02-10T04:12:17;1.90;99.90
49238;DHT22;35069;47.906;1.892;2023-02-10T04:14:43;1.90;99.90
49238;DHT22;35069;47.906;1.892;2023-02-10T04:17:08;1.90;99.90
49238;DHT22;35069;47.906;1.892;2023-02-10T04:19:34;1.90;99.90
49238;DHT22;35069;47.906;1.892;2023-02-10T04:22:00;1.80;99.90
49238;DHT22;35069;47.906;1.892;2023-02-10T04:24:25;1.70;99.90
49238;DHT22;35069;47.906;1.892;2023-02-10T04:26:51;1.70;99.90
49238;DHT22;35069;47.906;1.892;2023-02-10T04:29:16;1.80;99.90
49238;DHT22;35069;47.906;1.892;2023-02-10T04:31:42;1.90;99.90
49238;DHT22;35069;47.906;1.892;2023-02-10T04:34:08;2.10;99.90
49238;DHT22;35069;47.906;1.892;2023-02-10T04:36:33;2.20;99.90
49238;DHT22;35069;47.906;1.892;2023-02-10T04:38:59;2.20;99.90
49238;DHT22;35069;47.906;1.892;2023-02-10T04:41:25;2.20;99.90
49238;DHT22;35069;47.906;1.892;2023-02-10T04:43:51;2.10;99.90
49238;DHT22;35069;47.906;1.892;2023-02-10T04:46:17;2.10;99.90
49238;DHT22;35069;47.906;1.892;2023-02-10T04:48:42;2.10;99.90
49238;DHT22;35069;47.906;1.892;2023-02-10T04:51:09;2.20;99.90
49238;DHT22;35069;47.906;1.892;2023-02-10T04:53:36;2.30;99.90
49238;DHT22;35069;47.906;1.892;2023-02-10T04:56:01;2.40;99.90
49238;DHT22;35069;47.906;1.892;2023-02-10T04:58:29;2.40;99.90
49238;DHT22;35069;47.906;1.892;2023-02-10T05:00:55;2.50;99.90
49238;DHT22;35069;47.906;1.892;2023-02-10T05:03:21;2.40;99.90
49238;DHT22;35069;47.906;1.892;2023-02-10T05:05:47;2.40;99.90
49238;DHT22;35069;47.906;1.892;2023-02-10T05:08:13;2.40;99.90
49238;DHT22;35069;47.906;1.892;2023-02-10T05:10:38;2.40;99.90
49238;DHT22;35069;47.906;1.892;2023-02-10T05:13:04;2.40;99.90
49238;DHT22;35069;47.906;1.892;2023-02-10T05:15:29;2.40;99.90
49238;DHT22;35069;47.906;1.892;2023-02-10T05:17:55;2.40;99.90
49238;DHT22;35069;47.906;1.892;2023-02-10T05:20:21;2.30;99.90
49238;DHT22;35069;47.906;1.892;2023-02-10T05:22:47;2.40;99.90
49238;DHT22;35069;47.906;1.892;2023-02-10T05:25:12;2.40;99.90
49238;DHT22;35069;47.906;1.892;2023-02-10T05:27:38;2.40;99.90
49238;DHT22;35069;47.906;1.892;2023-02-10T05:30:05;2.50;99.90
49238;DHT22;35069;47.906;1.892;2023-02-10T05:32:32;2.60;99.90
49238;DHT22;35069;47.906;1.892;2023-02-10T05:34:58;2.60;99.90
49238;DHT22;35069;47.906;1.892;2023-02-10T05:37:23;2.60;99.90
49238;DHT22;35069;47.906;1.892;2023-02-10T05:39:49;2.60;99.90
49238;DHT22;35069;47.906;1.892;2023-02-10T05:42:14;2.60;99.90
49238;DHT22;35069;47.906;1.892;2023-02-10T05:44:40;2.50;99.90
49238;DHT22;35069;47.906;1.892;2023-02-10T05:47:06;2.50;99.90
49238;DHT22;35069;47.906;1.892;2023-02-10T05:49:31;2.50;99.90
49238;DHT22;35069;47.906;1.892;2023-02-10T05:51:57;2.40;99.90
49238;DHT22;35069;47.906;1.892;2023-02-10T05:54:22;2.40;99.90
49238;DHT22;35069;47.906;1.892;2023-02-10T05:56:48;2.50;99.90
49238;DHT22;35069;47.906;1.892;2023-02-10T05:59:15;2.50;99.90
49238;DHT22;35069;47.906;1.892;2023-02-10T06:01:41;2.60;99.90
49238;DHT22;35069;47.906;1.892;2023-02-10T06:04:07;2.60;99.90
49238;DHT22;35069;47.906;1.892;2023-02-10T06:06:32;2.60;99.90
49238;DHT22;35069;47.906;1.892;2023-02-10T06:08:58;2.60;99.90
49238;DHT22;35069;47.906;1.892;2023-02-10T06:11:23;2.60;99.90
49238;DHT22;35069;47.906;1.892;2023-02-10T06:13:49;2.60;99.90
49238;DHT22;35069;47.906;1.892;2023-02-10T06:16:15;2.60;99.90
49238;DHT22;35069;47.906;1.892;2023-02-10T06:18:40;2.50;99.90
49238;DHT22;35069;47.906;1.892;2023-02-10T06:21:07;2.60;99.90
49238;DHT22;35069;47.906;1.892;2023-02-10T06:23:33;2.40;99.90
49238;DHT22;35069;47.906;1.892;2023-02-10T06:25:59;2.40;99.90
49238;DHT22;35069;47.906;1.892;2023-02-10T06:28:26;2.40;99.90
49238;DHT22;35069;47.906;1.892;2023-02-10T06:30:52;2.40;99.90
49238;DHT22;35069;47.906;1.892;2023-02-10T06:33:18;2.50;99.90
49238;DHT22;35069;47.906;1.892;2023-02-10T06:35:45;2.50;99.90
49238;DHT22;35069;47.906;1.892;2023-02-10T06:38:11;2.50;99.90
49238;DHT22;35069;47.906;1.892;2023-02-10T06:40:36;2.50;99.90
49238;DHT22;35069;47.906;1.892;2023-02-10T06:43:05;2.60;99.90
49238;DHT22;35069;47.906;1.892;2023-02-10T06:45:31;2.60;99.90
49238;DHT22;35069;47.906;1.892;2023-02-10T06:47:58;2.70;99.90
49238;DHT22;35069;47.906;1.892;2023-02-10T06:50:23;2.70;99.90
49238;DHT22;35069;47.906;1.892;2023-02-10T06:52:49;2.70;99.90
49238;DHT22;35069;47.906;1.892;2023-02-10T06:55:15;2.60;99.90
49238;DHT22;35069;47.906;1.892;2023-02-10T06:57:41;2.70;99.90
49238;DHT22;35069;47.906;1.892;2023-02-10T07:00:10;2.70;99.90
49238;DHT22;35069;47.906;1.892;2023-02-10T07:02:36;2.70;99.90
49238;DHT22;35069;47.906;1.892;2023-02-10T07:05:03;2.70;99.90
49238;DHT22;35069;47.906;1.892;2023-02-10T07:07:31;2.70;99.90
49238;DHT22;35069;47.906;1.892;2023-02-10T07:09:57;2.70;99.90
49238;DHT22;35069;47.906;1.892;2023-02-10T07:12:22;2.70;99.90
49238;DHT22;35069;47.906;1.892;2023-02-10T07:14:51;2.70;99.90
49238;DHT22;35069;47.906;1.892;2023-02-10T07:17:17;2.70;99.90
49238;DHT22;35069;47.906;1.892;2023-02-10T07:19:43;2.70;99.90
49238;DHT22;35069;47.906;1.892;2023-02-10T07:22:08;2.70;99.90
49238;DHT22;35069;47.906;1.892;2023-02-10T07:24:34;2.70;99.90
49238;DHT22;35069;47.906;1.892;2023-02-10T07:27:00;2.70;99.90
49238;DHT22;35069;47.906;1.892;2023-02-10T07:29:26;2.70;99.90
49238;DHT22;35069;47.906;1.892;2023-02-10T07:31:52;2.70;99.90
49238;DHT22;35069;47.906;1.892;2023-02-10T07:34:17;2.70;99.90
49238;DHT22;35069;47.906;1.892;2023-02-10T07:36:45;2.80;99.90
49238;DHT22;35069;47.906;1.892;2023-02-10T07:39:11;2.80;99.90
49238;DHT22;35069;47.906;1.892;2023-02-10T07:41:37;2.70;99.90
49238;DHT22;35069;47.906;1.892;2023-02-10T07:44:03;2.70;99.90
49238;DHT22;35069;47.906;1.892;2023-02-10T07:46:28;2.80;99.90
49238;DHT22;35069;47.906;1.892;2023-02-10T07:48:54;2.80;99.90
49238;DHT22;35069;47.906;1.892;2023-02-10T07:51:20;2.80;99.90
49238;DHT22;35069;47.906;1.892;2023-02-10T07:53:45;2.90;99.90
49238;DHT22;35069;47.906;1.892;2023-02-10T07:56:11;2.90;99.90
49238;DHT22;35069;47.906;1.892;2023-02-10T07:58:37;3.00;99.90
49238;DHT22;35069;47.906;1.892;2023-02-10T08:01:09;3.00;99.90
49238;DHT22;35069;47.906;1.892;2023-02-10T08:03:35;3.00;99.90
49238;DHT22;35069;47.906;1.892;2023-02-10T08:06:01;3.00;99.90
49238;DHT22;35069;47.906;1.892;2023-02-10T08:08:27;3.00;99.90
49238;DHT22;35069;47.906;1.892;2023-02-10T08:10:52;3.10;99.90
49238;DHT22;35069;47.906;1.892;2023-02-10T08:13:18;3.20;99.90
49238;DHT22;35069;47.906;1.892;2023-02-10T08:15:44;3.30;99.90
49238;DHT22;35069;47.906;1.892;2023-02-10T08:18:09;3.40;99.90
49238;DHT22;35069;47.906;1.892;2023-02-10T08:20:35;3.40;99.90
49238;DHT22;35069;47.906;1.892;2023-02-10T08:23:01;3.40;99.90
49238;DHT22;35069;47.906;1.892;2023-02-10T08:25:27;3.40;99.90
49238;DHT22;35069;47.906;1.892;2023-02-10T08:27:52;3.40;99.90
49238;DHT22;35069;47.906;1.892;2023-02-10T08:30:18;3.40;99.90
49238;DHT22;35069;47.906;1.892;2023-02-10T08:32:44;3.30;99.90
49238;DHT22;35069;47.906;1.892;2023-02-10T08:35:09;3.30;99.90
49238;DHT22;35069;47.906;1.892;2023-02-10T08:37:36;3.40;99.90
49238;DHT22;35069;47.906;1.892;2023-02-10T08:40:02;3.50;99.90
49238;DHT22;35069;47.906;1.892;2023-02-10T08:42:31;3.50;99.90
49238;DHT22;35069;47.906;1.892;2023-02-10T08:44:57;3.50;99.90
49238;DHT22;35069;47.906;1.892;2023-02-10T08:47:23;3.40;99.90
49238;DHT22;35069;47.906;1.892;2023-02-10T08:49:49;3.50;99.90
49238;DHT22;35069;47.906;1.892;2023-02-10T08:52:14;3.50;99.90
49238;DHT22;35069;47.906;1.892;2023-02-10T08:54:41;3.50;99.90
49238;DHT22;35069;47.906;1.892;2023-02-10T08:57:07;3.50;99.90
49238;DHT22;35069;47.906;1.892;2023-02-10T08:59:33;3.60;99.90
49238;DHT22;35069;47.906;1.892;2023-02-10T09:01:58;3.70;99.90
49238;DHT22;35069;47.906;1.892;2023-02-10T09:04:24;3.70;99.90
49238;DHT22;35069;47.906;1.892;2023-02-10T09:06:50;3.80;99.90
49238;DHT22;35069;47.906;1.892;2023-02-10T09:09:18;3.90;99.90
49238;DHT22;35069;47.906;1.892;2023-02-10T09:11:45;3.80;99.90
49238;DHT22;35069;47.906;1.892;2023-02-10T09:14:11;4.00;99.90
49238;DHT22;35069;47.906;1.892;2023-02-10T09:16:37;4.00;99.90
49238;DHT22;35069;47.906;1.892;2023-02-10T09:19:03;4.00;99.90
49238;DHT22;35069;47.906;1.892;2023-02-10T09:21:29;4.10;99.90
49238;DHT22;35069;47.906;1.892;2023-02-10T09:23:55;4.20;99.90
49238;DHT22;35069;47.906;1.892;2023-02-10T09:26:20;4.30;99.90
49238;DHT22;35069;47.906;1.892;2023-02-10T09:28:46;4.20;99.90
49238;DHT22;35069;47.906;1.892;2023-02-10T09:31:12;4.20;99.90
49238;DHT22;35069;47.906;1.892;2023-02-10T09:33:39;4.20;99.90
49238;DHT22;35069;47.906;1.892;2023-02-10T09:36:06;4.30;99.90
49238;DHT22;35069;47.906;1.892;2023-02-10T09:38:33;4.30;99.90
49238;DHT22;35069;47.906;1.892;2023-02-10T09:41:31;4.40;99.90
49238;DHT22;35069;47.906;1.892;2023-02-10T09:55:20;5.20;99.90
49238;DHT22;35069;47.906;1.892;2023-02-10T09:57:54;5.30;99.90
49238;DHT22;35069;47.906;1.892;2023-02-10T10:00:40;5.40;99.90
49238;DHT22;35069;47.906;1.892;2023-02-10T10:03:11;5.60;99.90
49238;DHT22;35069;47.906;1.892;2023-02-10T10:08:33;5.80;99.90
49238;DHT22;35069;47.906;1.892;2023-02-10T10:11:19;5.90;99.90
49238;DHT22;35069;47.906;1.892;2023-02-10T10:13:47;6.00;99.90
49238;DHT22;35069;47.906;1.892;2023-02-10T10:30:48;7.10;99.90
49238;DHT22;35069;47.906;1.892;2023-02-10T10:36:05;7.50;99.90
49238;DHT22;35069;47.906;1.892;2023-02-10T10:38:43;7.70;99.90
49238;DHT22;35069;47.906;1.892;2023-02-10T10:41:13;7.70;99.90
49238;DHT22;35069;47.906;1.892;2023-02-10T10:43:47;7.90;99.90
49238;DHT22;35069;47.906;1.892;2023-02-10T10:49:01;8.10;99.90
49238;DHT22;35069;47.906;1.892;2023-02-10T10:51:28;8.20;99.90
49238;DHT22;35069;47.906;1.892;2023-02-10T10:53:55;8.20;99.90
49238;DHT22;35069;47.906;1.892;2023-02-10T10:58:57;8.20;99.90
49238;DHT22;35069;47.906;1.892;2023-02-10T11:01:39;8.20;99.90
49238;DHT22;35069;47.906;1.892;2023-02-10T11:06:38;8.20;99.90
49238;DHT22;35069;47.906;1.892;2023-02-10T11:09:13;8.30;99.90
49238;DHT22;35069;47.906;1.892;2023-02-10T11:11:42;8.10;99.90
49238;DHT22;35069;47.906;1.892;2023-02-10T11:14:17;8.30;99.90
49238;DHT22;35069;47.906;1.892;2023-02-10T11:16:48;8.30;99.90
49238;DHT22;35069;47.906;1.892;2023-02-10T11:19:23;8.40;99.90
49238;DHT22;35069;47.906;1.892;2023-02-10T11:21:49;8.50;99.90
49238;DHT22;35069;47.906;1.892;2023-02-10T11:27:00;8.60;99.90
49238;DHT22;35069;47.906;1.892;2023-02-10T11:29:29;8.70;99.90
49238;DHT22;35069;47.906;1.892;2023-02-10T11:31:55;8.80;99.90
49238;DHT22;35069;47.906;1.892;2023-02-10T11:34:42;8.80;99.80
49238;DHT22;35069;47.906;1.892;2023-02-10T11:37:29;8.80;99.20
49238;DHT22;35069;47.906;1.892;2023-02-10T11:39:58;8.70;99.00
49238;DHT22;35069;47.906;1.892;2023-02-10T11:42:30;8.70;98.90
49238;DHT22;35069;47.906;1.892;2023-02-10T11:45:03;8.70;98.60
49238;DHT22;35069;47.906;1.892;2023-02-10T11:47:37;8.70;98.70
49238;DHT22;35069;47.906;1.892;2023-02-10T11:50:23;8.80;98.50
49238;DHT22;35069;47.906;1.892;2023-02-10T11:52:49;8.80;97.90
49238;DHT22;35069;47.906;1.892;2023-02-10T11:55:15;8.90;98.00
49238;DHT22;35069;47.906;1.892;2023-02-10T12:00:46;9.20;98.20
49238;DHT22;35069;47.906;1.892;2023-02-10T12:09:04;9.70;95.60
49238;DHT22;35069;47.906;1.892;2023-02-10T12:11:42;9.60;96.60
49238;DHT22;35069;47.906;1.892;2023-02-10T12:29:02;10.10;95.40
49238;DHT22;35069;47.906;1.892;2023-02-10T12:31:47;10.10;95.40
49238;DHT22;35069;47.906;1.892;2023-02-10T12:40:42;10.10;94.90
49238;DHT22;35069;47.906;1.892;2023-02-10T12:54:43;10.50;95.10
49238;DHT22;35069;47.906;1.892;2023-02-10T12:59:56;10.60;94.90
49238;DHT22;35069;47.906;1.892;2023-02-10T13:05:08;10.70;94.80
49238;DHT22;35069;47.906;1.892;2023-02-10T13:07:53;10.50;94.20
49238;DHT22;35069;47.906;1.892;2023-02-10T13:12:52;10.30;93.80
49238;DHT22;35069;47.906;1.892;2023-02-10T13:18:38;10.40;93.10
49238;DHT22;35069;47.906;1.892;2023-02-10T13:21:28;10.40;92.30
49238;DHT22;35069;47.906;1.892;2023-02-10T13:24:19;10.40;92.00
49238;DHT22;35069;47.906;1.892;2023-02-10T13:26:49;10.40;93.00
49238;DHT22;35069;47.906;1.892;2023-02-10T13:32:13;10.20;93.00
49238;DHT22;35069;47.906;1.892;2023-02-10T13:34:44;10.20;93.10
49238;DHT22;35069;47.906;1.892;2023-02-10T13:37:17;10.20;93.10
49238;DHT22;35069;47.906;1.892;2023-02-10T13:39:58;10.20;92.80
49238;DHT22;35069;47.906;1.892;2023-02-10T13:42:37;10.30;92.70
49238;DHT22;35069;47.906;1.892;2023-02-10T13:48:00;10.30;92.80
49238;DHT22;35069;47.906;1.892;2023-02-10T13:53:05;10.10;92.50
49238;DHT22;35069;47.906;1.892;2023-02-10T14:00:30;9.70;92.20
49238;DHT22;35069;47.906;1.892;2023-02-10T14:08:39;9.00;92.60
49238;DHT22;35069;47.906;1.892;2023-02-10T14:11:25;8.80;92.80
49238;DHT22;35069;47.906;1.892;2023-02-10T14:14:03;8.70;93.10
49238;DHT22;35069;47.906;1.892;2023-02-10T14:19:02;8.50;93.50
49238;DHT22;35069;47.906;1.892;2023-02-10T14:21:41;8.50;93.70
49238;DHT22;35069;47.906;1.892;2023-02-10T14:24:28;8.40;94.00
49238;DHT22;35069;47.906;1.892;2023-02-10T14:26:57;8.30;94.10
49238;DHT22;35069;47.906;1.892;2023-02-10T14:29:25;8.20;94.10
49238;DHT22;35069;47.906;1.892;2023-02-10T14:31:55;8.20;94.40
49238;DHT22;35069;47.906;1.892;2023-02-10T14:34:27;8.10;94.50
49238;DHT22;35069;47.906;1.892;2023-02-10T14:39:26;8.00;95.00
49238;DHT22;35069;47.906;1.892;2023-02-10T14:41:53;8.00;94.90
49238;DHT22;35069;47.906;1.892;2023-02-10T14:44:38;8.00;95.30
49238;DHT22;35069;47.906;1.892;2023-02-10T14:47:05;8.00;95.60
49238;DHT22;35069;47.906;1.892;2023-02-10T14:49:31;8.00;95.60
49238;DHT22;35069;47.906;1.892;2023-02-10T14:52:01;8.00;95.40
49238;DHT22;35069;47.906;1.892;2023-02-10T14:54:27;8.00;95.80
49238;DHT22;35069;47.906;1.892;2023-02-10T14:56:58;7.90;96.10
49238;DHT22;35069;47.906;1.892;2023-02-10T14:59:26;8.00;96.00
49238;DHT22;35069;47.906;1.892;2023-02-10T15:01:53;8.10;96.20
49238;DHT22;35069;47.906;1.892;2023-02-10T15:04:20;7.90;96.20
49238;DHT22;35069;47.906;1.892;2023-02-10T15:06:48;8.00;96.40
49238;DHT22;35069;47.906;1.892;2023-02-10T15:09:18;8.00;96.50
49238;DHT22;35069;47.906;1.892;2023-02-10T15:11:47;7.90;96.60
49238;DHT22;35069;47.906;1.892;2023-02-10T15:14:36;8.00;96.80
49238;DHT22;35069;47.906;1.892;2023-02-10T15:17:07;8.00;96.80
49238;DHT22;35069;47.906;1.892;2023-02-10T15:19:35;8.00;96.80
49238;DHT22;35069;47.906;1.892;2023-02-10T15:22:01;8.00;96.80
49238;DHT22;35069;47.906;1.892;2023-02-10T15:24:31;8.00;96.90
49238;DHT22;35069;47.906;1.892;2023-02-10T15:27:17;8.00;97.00
49238;DHT22;35069;47.906;1.892;2023-02-10T15:29:43;7.90;97.10
49238;DHT22;35069;47.906;1.892;2023-02-10T15:32:20;7.90;97.10
49238;DHT22;35069;47.906;1.892;2023-02-10T15:34:46;7.80;97.20
49238;DHT22;35069;47.906;1.892;2023-02-10T15:37:20;7.80;97.20
49238;DHT22;35069;47.906;1.892;2023-02-10T15:39:58;7.80;97.20
49238;DHT22;35069;47.906;1.892;2023-02-10T15:42:29;7.90;97.30
49238;DHT22;35069;47.906;1.892;2023-02-10T15:45:24;7.80;97.50
49238;DHT22;35069;47.906;1.892;2023-02-10T15:48:06;7.80;97.70
49238;DHT22;35069;47.906;1.892;2023-02-10T15:50:32;7.80;98.00
49238;DHT22;35069;47.906;1.892;2023-02-10T15:52:59;7.80;97.60
49238;DHT22;35069;47.906;1.892;2023-02-10T15:55:37;7.70;97.70
49238;DHT22;35069;47.906;1.892;2023-02-10T15:58:03;7.60;98.00
49238;DHT22;35069;47.906;1.892;2023-02-10T16:00:34;7.70;98.10
49238;DHT22;35069;47.906;1.892;2023-02-10T16:03:00;7.60;98.10
49238;DHT22;35069;47.906;1.892;2023-02-10T16:05:27;7.60;98.10
49238;DHT22;35069;47.906;1.892;2023-02-10T16:07:55;7.50;98.10
49238;DHT22;35069;47.906;1.892;2023-02-10T16:10:25;7.50;98.30
49238;DHT22;35069;47.906;1.892;2023-02-10T16:12:51;7.40;98.30
49238;DHT22;35069;47.906;1.892;2023-02-10T16:15:21;7.30;98.60
49238;DHT22;35069;47.906;1.892;2023-02-10T16:17:50;7.30;98.70
49238;DHT22;35069;47.906;1.892;2023-02-10T16:20:20;7.30;98.70
49238;DHT22;35069;47.906;1.892;2023-02-10T16:22:46;7.20;98.80
49238;DHT22;35069;47.906;1.892;2023-02-10T16:25:16;7.20;98.90
49238;DHT22;35069;47.906;1.892;2023-02-10T16:27:43;7.10;98.90
49238;DHT22;35069;47.906;1.892;2023-02-10T16:30:18;7.10;99.20
49238;DHT22;35069;47.906;1.892;2023-02-10T16:32:44;7.10;99.50
49238;DHT22;35069;47.906;1.892;2023-02-10T16:35:11;7.20;99.70
49238;DHT22;35069;47.906;1.892;2023-02-10T16:37:37;7.20;99.60
49238;DHT22;35069;47.906;1.892;2023-02-10T16:40:03;7.30;99.80
49238;DHT22;35069;47.906;1.892;2023-02-10T16:42:29;7.30;99.80
49238;DHT22;35069;47.906;1.892;2023-02-10T16:44:55;7.30;99.80
49238;DHT22;35069;47.906;1.892;2023-02-10T16:47:21;7.30;99.90
49238;DHT22;35069;47.906;1.892;2023-02-10T16:49:48;7.30;99.90
49238;DHT22;35069;47.906;1.892;2023-02-10T16:52:14;7.30;99.90
49238;DHT22;35069;47.906;1.892;2023-02-10T16:54:40;7.30;99.90
49238;DHT22;35069;47.906;1.892;2023-02-10T16:57:06;7.30;99.90
49238;DHT22;35069;47.906;1.892;2023-02-10T16:59:32;7.30;99.90
49238;DHT22;35069;47.906;1.892;2023-02-10T17:01:58;7.30;99.90
49238;DHT22;35069;47.906;1.892;2023-02-10T17:04:24;7.20;99.90
49238;DHT22;35069;47.906;1.892;2023-02-10T17:06:50;7.30;99.90
49238;DHT22;35069;47.906;1.892;2023-02-10T17:09:22;7.20;99.90
49238;DHT22;35069;47.906;1.892;2023-02-10T17:11:49;7.30;99.90
49238;DHT22;35069;47.906;1.892;2023-02-10T17:14:15;7.20;99.90
49238;DHT22;35069;47.906;1.892;2023-02-10T17:16:43;7.20;99.90
49238;DHT22;35069;47.906;1.892;2023-02-10T17:19:11;7.00;99.90
49238;DHT22;35069;47.906;1.892;2023-02-10T17:21:37;7.00;99.90
49238;DHT22;35069;47.906;1.892;2023-02-10T17:24:04;6.90;99.90
49238;DHT22;35069;47.906;1.892;2023-02-10T17:26:30;6.90;99.90
49238;DHT22;35069;47.906;1.892;2023-02-10T17:28:56;6.80;99.90
49238;DHT22;35069;47.906;1.892;2023-02-10T17:31:23;6.70;99.90
49238;DHT22;35069;47.906;1.892;2023-02-10T17:33:49;6.70;99.90
49238;DHT22;35069;47.906;1.892;2023-02-10T17:36:20;6.70;99.90
49238;DHT22;35069;47.906;1.892;2023-02-10T17:38:46;6.70;99.90
49238;DHT22;35069;47.906;1.892;2023-02-10T17:41:16;6.60;99.90
49238;DHT22;35069;47.906;1.892;2023-02-10T17:43:42;6.60;99.90
49238;DHT22;35069;47.906;1.892;2023-02-10T17:46:10;6.60;99.90
49238;DHT22;35069;47.906;1.892;2023-02-10T17:48:35;6.50;99.90
49238;DHT22;35069;47.906;1.892;2023-02-10T17:51:16;6.40;99.90
49238;DHT22;35069;47.906;1.892;2023-02-10T17:53:43;6.40;99.90
49238;DHT22;35069;47.906;1.892;2023-02-10T17:56:09;6.40;99.90
49238;DHT22;35069;47.906;1.892;2023-02-10T17:58:34;6.30;99.90
49238;DHT22;35069;47.906;1.892;2023-02-10T18:01:00;6.30;99.90
49238;DHT22;35069;47.906;1.892;2023-02-10T18:03:26;6.20;99.90
49238;DHT22;35069;47.906;1.892;2023-02-10T18:05:53;6.30;99.90
49238;DHT22;35069;47.906;1.892;2023-02-10T18:08:20;6.20;99.90
49238;DHT22;35069;47.906;1.892;2023-02-10T18:10:47;6.20;99.90
49238;DHT22;35069;47.906;1.892;2023-02-10T18:13:13;6.10;99.90
49238;DHT22;35069;47.906;1.892;2023-02-10T18:15:40;6.20;99.90
49238;DHT22;35069;47.906;1.892;2023-02-10T18:18:06;6.10;99.90